createdAt,value
2019-06-20T00:01:41.081Z,99701.86
2019-06-20T00:06:45.821Z,99707.61
2019-06-20T00:11:50.636Z,99705.69
2019-06-20T00:16:59.320Z,99704.55
2019-06-20T00:22:01.990Z,99701.97
2019-06-20T00:27:06.758Z,99700.78
2019-06-20T00:32:11.585Z,99701.27
2019-06-20T00:37:16.449Z,99706.00
2019-06-20T00:42:21.151Z,99698.59
2019-06-20T00:47:26.200Z,99704.63
2019-06-20T00:52:31.018Z,99710.94
2019-06-20T00:57:35.739Z,99711.66
2019-06-20T01:02:40.746Z,99707.73
2019-06-20T01:07:45.507Z,99704.79
2019-06-20T01:12:51.103Z,99708.20
2019-06-20T01:17:55.895Z,99704.18
2019-06-20T01:23:00.829Z,99703.58
2019-06-20T01:28:05.825Z,99698.94
2019-06-20T01:33:10.500Z,99693.27
2019-06-20T01:38:15.116Z,99687.02
2019-06-20T01:43:19.871Z,99691.83
2019-06-20T01:48:24.488Z,99689.91
2019-06-20T01:53:29.329Z,99686.14
2019-06-20T01:58:34.005Z,99689.12
2019-06-20T02:03:38.725Z,99694.27
2019-06-20T02:08:43.480Z,99683.52
2019-06-20T02:13:48.199Z,99677.90
2019-06-20T02:18:52.966Z,99678.25
2019-06-20T02:23:57.885Z,99685.73
2019-06-20T02:29:02.494Z,99684.73
2019-06-20T02:34:07.170Z,99680.93
2019-06-20T02:39:11.892Z,99683.21
2019-06-20T02:44:29.014Z,99684.52
2019-06-20T02:49:22.917Z,99685.95
2019-06-20T02:54:27.613Z,99684.50
2019-06-20T02:59:32.408Z,99678.23
2019-06-20T03:04:37.063Z,99683.20
2019-06-20T03:09:41.666Z,99680.98
2019-06-20T03:14:47.416Z,99681.86
2019-06-20T03:19:52.072Z,99691.83
2019-06-20T03:24:56.870Z,99693.04
2019-06-20T03:30:01.567Z,99693.63
2019-06-20T03:35:06.490Z,99695.64
2019-06-20T03:40:11.594Z,99699.91
2019-06-20T03:45:16.914Z,99696.13
2019-06-20T03:50:21.690Z,99695.87
2019-06-20T03:55:26.369Z,99703.09
2019-06-20T04:00:34.562Z,99708.42
2019-06-20T04:05:39.212Z,99694.84
2019-06-20T04:10:43.855Z,99703.95
2019-06-20T04:15:48.615Z,99700.06
2019-06-20T04:20:53.311Z,99706.26
2019-06-20T04:25:58.302Z,99709.61
2019-06-20T04:31:03.134Z,99708.16
2019-06-20T04:36:07.908Z,99711.78
2019-06-20T04:41:12.667Z,99707.89
2019-06-20T04:46:24.116Z,99714.03
2019-06-20T04:51:28.879Z,99719.83
2019-06-20T04:56:34.001Z,99720.80
2019-06-20T05:01:38.664Z,99719.22
2019-06-20T05:06:44.710Z,99725.88
2019-06-20T05:11:49.279Z,99721.75
2019-06-20T05:16:54.143Z,99721.15
2019-06-20T05:21:58.844Z,99716.73
2019-06-20T05:27:03.643Z,99712.45
2019-06-20T05:32:08.306Z,99718.70
2019-06-20T05:37:12.925Z,99732.75
2019-06-20T05:42:17.656Z,99735.95
2019-06-20T05:47:22.362Z,99735.49
2019-06-20T05:52:27.194Z,99740.23
2019-06-20T05:57:32.012Z,99734.77
2019-06-20T06:02:36.706Z,99733.90
2019-06-20T06:07:41.416Z,99739.41
2019-06-20T06:12:46.128Z,99739.34
2019-06-20T06:17:51.120Z,99737.38
2019-06-20T06:22:56.155Z,99741.70
2019-06-20T06:28:00.906Z,99747.91
2019-06-20T06:33:07.031Z,99758.05
2019-06-20T06:38:11.661Z,99754.12
2019-06-20T06:43:16.490Z,99763.16
2019-06-20T06:48:21.259Z,99758.83
2019-06-20T06:53:26.096Z,99770.61
2019-06-20T06:58:30.910Z,99773.84
2019-06-20T07:03:35.907Z,99778.14
2019-06-20T07:08:40.787Z,99783.38
2019-06-20T07:13:45.602Z,99776.62
2019-06-20T07:18:52.120Z,99782.13
2019-06-20T07:23:57.148Z,99785.20
2019-06-20T07:29:02.046Z,99775.69
2019-06-20T07:34:06.807Z,99784.31
2019-06-20T07:39:11.956Z,99787.45
2019-06-20T07:44:16.802Z,99792.84
2019-06-20T07:49:21.640Z,99797.75
2019-06-20T07:54:26.334Z,99807.16
2019-06-20T07:59:31.399Z,99812.75
2019-06-20T08:04:36.479Z,99805.66
2019-06-20T08:09:45.219Z,99807.17
2019-06-20T08:14:48.120Z,99812.02
2019-06-20T08:19:53.980Z,99820.56
2019-06-20T08:24:59.087Z,99813.34
2019-06-20T08:30:05.126Z,99821.89
2019-06-20T08:35:10.360Z,99829.92
2019-06-20T08:40:15.904Z,99834.25
2019-06-20T08:45:21.523Z,99830.56
2019-06-20T08:50:26.666Z,99828.91
2019-06-20T08:55:31.675Z,99830.65
2019-06-20T09:00:39.640Z,99830.30
2019-06-20T09:05:44.559Z,99837.32
2019-06-20T09:10:49.298Z,99843.78
2019-06-20T09:15:54.804Z,99840.45
2019-06-20T09:21:00.509Z,99842.25
2019-06-20T09:26:05.836Z,99850.55
2019-06-20T09:31:10.931Z,99848.36
2019-06-20T09:36:15.776Z,99840.30
2019-06-20T09:41:20.562Z,99850.67
2019-06-20T09:46:25.314Z,99863.24
2019-06-20T09:51:30.019Z,99862.00
2019-06-20T09:56:34.867Z,99861.21
2019-06-20T10:01:39.626Z,99859.66
2019-06-20T10:06:44.306Z,99863.50
2019-06-20T10:11:49.714Z,99883.77
2019-06-20T10:16:57.498Z,99880.32
2019-06-20T10:22:03.350Z,99864.19
2019-06-20T10:27:08.461Z,99877.72
2019-06-20T10:32:13.461Z,99884.80
2019-06-20T10:37:18.571Z,99877.72
2019-06-20T10:42:23.455Z,99888.68
2019-06-20T10:47:33.519Z,99889.92
2019-06-20T10:52:34.886Z,99882.52
2019-06-20T10:57:41.285Z,99880.16
2019-06-20T11:02:47.048Z,99884.20
2019-06-20T11:07:52.009Z,99892.59
2019-06-20T11:12:56.779Z,99895.36
2019-06-20T11:18:01.819Z,99895.40
2019-06-20T11:23:06.707Z,99885.50
2019-06-20T11:28:11.761Z,99887.75
2019-06-20T11:33:16.863Z,99908.41
2019-06-20T11:38:21.715Z,99898.04
2019-06-20T11:43:26.532Z,99898.80
2019-06-20T11:48:31.255Z,99906.52
2019-06-20T11:53:38.493Z,99900.89
2019-06-20T11:58:43.334Z,99902.36
2019-06-20T12:03:48.977Z,99905.86
2019-06-20T12:08:53.875Z,99905.95
2019-06-20T12:13:58.574Z,99909.89
2019-06-20T12:19:03.370Z,99900.48
2019-06-20T12:24:08.796Z,99909.18
2019-06-20T12:29:13.639Z,99913.64
2019-06-20T12:34:18.642Z,99912.63
2019-06-20T12:39:23.463Z,99914.11
2019-06-20T12:44:28.344Z,99922.97
2019-06-20T12:49:33.149Z,99913.73
2019-06-20T12:54:38.170Z,99924.97
2019-06-20T12:59:44.575Z,99922.61
2019-06-20T13:04:50.609Z,99918.08
2019-06-20T13:09:55.713Z,99920.65
2019-06-20T13:15:00.426Z,99915.97
2019-06-20T13:20:06.069Z,99916.35
2019-06-20T13:25:11.042Z,99922.05
2019-06-20T13:30:17.760Z,99916.46
2019-06-20T13:35:22.952Z,99925.20
2019-06-20T13:40:27.716Z,99927.91
2019-06-20T13:45:32.506Z,99930.64
2019-06-20T13:50:38.641Z,99933.55
2019-06-20T13:55:44.101Z,99928.11
2019-06-20T14:00:50.809Z,99949.88
2019-06-20T14:05:55.667Z,99949.56
2019-06-20T14:11:00.770Z,99950.36
2019-06-20T14:16:06.128Z,99955.78
2019-06-20T14:21:10.954Z,99956.03
2019-06-20T14:26:15.742Z,99962.34
2019-06-20T14:31:20.409Z,99958.40
2019-06-20T14:36:25.146Z,99953.21
2019-06-20T14:41:29.855Z,99952.54
2019-06-20T14:46:34.782Z,99958.93
2019-06-20T14:51:39.578Z,99966.03
2019-06-20T14:56:46.112Z,99960.50
2019-06-20T15:01:52.497Z,99974.61
2019-06-20T15:06:57.516Z,99972.50
2019-06-20T15:12:02.470Z,99961.73
2019-06-20T15:17:07.711Z,99973.02
2019-06-20T15:22:12.683Z,99965.66
2019-06-20T15:27:17.727Z,99971.17
2019-06-20T15:32:22.919Z,99970.75
2019-06-20T15:37:28.208Z,99981.09
2019-06-20T15:42:33.105Z,99977.08
2019-06-20T15:47:38.134Z,99981.25
2019-06-20T15:52:43.238Z,99982.35
2019-06-20T15:57:48.247Z,99978.17
2019-06-20T16:03:08.428Z,99983.97
2019-06-20T16:07:59.683Z,99986.12
2019-06-20T16:13:04.591Z,99986.33
2019-06-20T16:18:09.370Z,99990.67
2019-06-20T16:23:14.260Z,99993.92
2019-06-20T16:28:20.031Z,99998.82
2019-06-20T16:33:25.865Z,99986.21
2019-06-20T16:38:31.099Z,99981.98
2019-06-20T16:43:35.959Z,99983.29
2019-06-20T16:48:40.830Z,99984.80
2019-06-20T16:53:45.655Z,99983.34
2019-06-20T16:58:50.441Z,99994.32
2019-06-20T17:03:55.534Z,99996.17
2019-06-20T17:09:00.293Z,99998.64
2019-06-20T17:14:05.321Z,99996.20
2019-06-20T17:19:10.184Z,99994.00
2019-06-20T17:24:15.003Z,99985.42
2019-06-20T17:29:20.171Z,99993.33
2019-06-20T17:34:25.209Z,99990.47
2019-06-20T17:39:30.564Z,100001.66
2019-06-20T17:44:35.315Z,99998.28
2019-06-20T17:49:40.360Z,100001.84
2019-06-20T17:54:45.552Z,100001.14
2019-06-20T17:59:50.545Z,100007.36
2019-06-20T18:04:55.479Z,100005.91
2019-06-20T18:10:00.343Z,100004.31
2019-06-20T18:15:05.881Z,100009.50
2019-06-20T18:20:12.943Z,100011.58
2019-06-20T18:25:18.337Z,100024.47
2019-06-20T18:30:33.516Z,100018.94
2019-06-20T18:35:38.324Z,100025.88
2019-06-20T18:40:43.579Z,100031.25
2019-06-20T18:45:48.318Z,100034.41
2019-06-20T18:50:53.220Z,100035.00
2019-06-20T18:55:58.256Z,100040.31
2019-06-20T19:01:03.216Z,100046.05
2019-06-20T19:06:08.425Z,100038.77
2019-06-20T19:11:13.276Z,100046.70
2019-06-20T19:16:18.255Z,100050.37
2019-06-20T19:21:23.231Z,100047.58
2019-06-20T19:26:28.067Z,100045.64
2019-06-20T19:31:34.307Z,100042.66
2019-06-20T19:36:39.228Z,100045.58
2019-06-20T19:41:43.987Z,100050.58
2019-06-20T19:46:49.214Z,100050.64
2019-06-20T19:51:54.151Z,100051.88
2019-06-20T19:56:59.059Z,100047.98
2019-06-20T20:02:03.941Z,100052.25
2019-06-20T20:07:09.223Z,100049.06
2019-06-20T20:12:14.343Z,100050.74
2019-06-20T20:17:19.282Z,100051.57
2019-06-20T20:22:24.259Z,100047.73
2019-06-20T20:27:29.230Z,100061.37
2019-06-20T20:32:34.344Z,100059.48
2019-06-20T20:37:39.259Z,100067.98
2019-06-20T20:42:44.286Z,100077.41
2019-06-20T20:47:49.452Z,100076.73
2019-06-20T20:52:54.474Z,100085.16
2019-06-20T20:57:59.443Z,100085.84
2019-06-20T21:03:07.227Z,100094.22
2019-06-20T21:08:10.810Z,100095.71
2019-06-20T21:13:16.369Z,100095.53
2019-06-20T21:18:21.127Z,100098.34
2019-06-20T21:23:26.268Z,100099.34
2019-06-20T21:28:31.166Z,100098.75
2019-06-20T21:33:36.296Z,100096.48
2019-06-20T21:38:41.182Z,100093.34
2019-06-20T21:43:46.203Z,100100.51
2019-06-20T21:48:50.959Z,100104.53
2019-06-20T21:53:55.798Z,100104.75
2019-06-20T21:59:00.663Z,100108.67
2019-06-20T22:04:05.740Z,100108.92
2019-06-20T22:09:10.656Z,100110.59
2019-06-20T22:14:15.633Z,100112.61
2019-06-20T22:19:20.638Z,100113.55
2019-06-20T22:24:25.684Z,100120.56
2019-06-20T22:29:30.622Z,100120.09
2019-06-20T22:34:36.365Z,100123.23
2019-06-20T22:39:41.147Z,100128.53
2019-06-20T22:44:45.982Z,100124.02
2019-06-20T22:49:50.668Z,100136.27
2019-06-20T22:54:55.482Z,100134.05
2019-06-20T23:00:00.426Z,100141.94
2019-06-20T23:05:05.835Z,100138.55
2019-06-20T23:10:11.579Z,100145.08
2019-06-20T23:15:17.102Z,100134.80
2019-06-20T23:20:23.215Z,100136.87
2019-06-20T23:25:28.041Z,100132.87
2019-06-20T23:30:32.701Z,100133.31
2019-06-20T23:35:37.510Z,100136.75
2019-06-20T23:40:42.815Z,100132.02
2019-06-20T23:45:47.519Z,100146.44
2019-06-20T23:50:52.311Z,100146.17
2019-06-20T23:55:57.218Z,100146.06
